Wing, Alabama
Current Conditions -  °F | °C
As of 8:58 AM on Friday 31 Oct 2014 (Local Time) from K0J4 Reporting Station
Clear Clear  
Wind Chill: 12°   Ceiling: Unl
Heat Index: 12°   Visibility: 10mi
Dew Point:   Wind: 3mph
Humidity: 66%   Direction: NA
Pressure: 30.02"   Gusts: NA
Location:  31.03°N, 86.61°W
Report Text: K0J4 311358Z AUTO VRB03KT 10SM CLR 12/06 A3002 RMK AO2 SLP164 T01220061 $
Loading
Personal Weather Stations






























Interactive Weather Map
Tropical Storm Tracking
New forecast layout! Learn more

10-Day Weather Forecast

Advertisements
Track Severe Weather on mobile